sensor_id;sensor_type;location;lat;lon;timestamp;P1;durP1;ratioP1;P2;durP2;ratioP2
36971;SDS011;40554;52.122;20.678;2022-12-29T00:02:08;12.47;;;6.25;;
36971;SDS011;40554;52.122;20.678;2022-12-29T00:04:24;10.90;;;6.83;;
36971;SDS011;40554;52.122;20.678;2022-12-29T00:06:41;11.63;;;6.62;;
36971;SDS011;40554;52.122;20.678;2022-12-29T00:08:58;12.93;;;7.03;;
36971;SDS011;40554;52.122;20.678;2022-12-29T00:11:15;12.80;;;6.72;;
36971;SDS011;40554;52.122;20.678;2022-12-29T00:13:34;12.03;;;6.40;;
36971;SDS011;40554;52.122;20.678;2022-12-29T00:16:09;16.73;;;7.08;;
36971;SDS011;40554;52.122;20.678;2022-12-29T00:18:26;12.98;;;6.58;;
36971;SDS011;40554;52.122;20.678;2022-12-29T00:20:42;13.70;;;6.55;;
36971;SDS011;40554;52.122;20.678;2022-12-29T00:23:17;11.43;;;6.40;;
36971;SDS011;40554;52.122;20.678;2022-12-29T00:25:52;16.00;;;6.55;;
36971;SDS011;40554;52.122;20.678;2022-12-29T00:28:26;11.83;;;5.60;;
36971;SDS011;40554;52.122;20.678;2022-12-29T00:31:03;11.43;;;5.95;;
36971;SDS011;40554;52.122;20.678;2022-12-29T00:33:41;12.85;;;6.30;;
36971;SDS011;40554;52.122;20.678;2022-12-29T00:36:19;15.05;;;6.92;;
36971;SDS011;40554;52.122;20.678;2022-12-29T00:39:02;11.43;;;6.05;;
36971;SDS011;40554;52.122;20.678;2022-12-29T00:41:40;11.55;;;5.47;;
36971;SDS011;40554;52.122;20.678;2022-12-29T00:44:15;10.98;;;5.83;;
36971;SDS011;40554;52.122;20.678;2022-12-29T00:46:34;13.00;;;5.72;;
36971;SDS011;40554;52.122;20.678;2022-12-29T00:48:56;12.43;;;5.70;;
36971;SDS011;40554;52.122;20.678;2022-12-29T00:51:32;11.97;;;5.33;;
36971;SDS011;40554;52.122;20.678;2022-12-29T00:53:48;12.58;;;5.87;;
36971;SDS011;40554;52.122;20.678;2022-12-29T00:56:04;12.63;;;5.30;;
36971;SDS011;40554;52.122;20.678;2022-12-29T00:58:21;10.05;;;5.42;;
36971;SDS011;40554;52.122;20.678;2022-12-29T01:00:37;8.60;;;5.03;;
36971;SDS011;40554;52.122;20.678;2022-12-29T01:02:53;9.88;;;5.42;;
36971;SDS011;40554;52.122;20.678;2022-12-29T01:05:09;10.65;;;5.78;;
36971;SDS011;40554;52.122;20.678;2022-12-29T01:07:26;11.65;;;6.00;;
36971;SDS011;40554;52.122;20.678;2022-12-29T01:09:42;11.90;;;5.55;;
36971;SDS011;40554;52.122;20.678;2022-12-29T01:12:16;8.65;;;4.87;;
36971;SDS011;40554;52.122;20.678;2022-12-29T01:14:35;10.98;;;5.03;;
36971;SDS011;40554;52.122;20.678;2022-12-29T01:16:52;10.85;;;5.10;;
36971;SDS011;40554;52.122;20.678;2022-12-29T01:19:10;11.95;;;5.65;;
36971;SDS011;40554;52.122;20.678;2022-12-29T01:21:26;10.78;;;5.40;;
36971;SDS011;40554;52.122;20.678;2022-12-29T01:23:43;8.88;;;4.92;;
36971;SDS011;40554;52.122;20.678;2022-12-29T01:26:08;9.45;;;4.97;;
36971;SDS011;40554;52.122;20.678;2022-12-29T01:28:28;10.98;;;4.72;;
36971;SDS011;40554;52.122;20.678;2022-12-29T01:30:44;8.85;;;4.78;;
36971;SDS011;40554;52.122;20.678;2022-12-29T01:33:00;8.90;;;4.85;;
36971;SDS011;40554;52.122;20.678;2022-12-29T01:35:16;8.83;;;4.37;;
36971;SDS011;40554;52.122;20.678;2022-12-29T01:37:33;12.05;;;5.33;;
36971;SDS011;40554;52.122;20.678;2022-12-29T01:39:49;10.35;;;4.83;;
36971;SDS011;40554;52.122;20.678;2022-12-29T01:42:08;8.30;;;4.87;;
36971;SDS011;40554;52.122;20.678;2022-12-29T01:44:49;7.55;;;4.60;;
36971;SDS011;40554;52.122;20.678;2022-12-29T01:47:08;10.00;;;4.35;;
36971;SDS011;40554;52.122;20.678;2022-12-29T01:49:26;10.68;;;5.15;;
36971;SDS011;40554;52.122;20.678;2022-12-29T01:51:45;8.28;;;4.47;;
36971;SDS011;40554;52.122;20.678;2022-12-29T01:54:13;10.05;;;4.40;;
36971;SDS011;40554;52.122;20.678;2022-12-29T01:56:33;7.30;;;3.58;;
36971;SDS011;40554;52.122;20.678;2022-12-29T01:58:54;7.05;;;3.65;;
36971;SDS011;40554;52.122;20.678;2022-12-29T02:01:11;10.75;;;4.55;;
36971;SDS011;40554;52.122;20.678;2022-12-29T02:03:28;5.70;;;4.10;;
36971;SDS011;40554;52.122;20.678;2022-12-29T02:05:49;10.30;;;5.17;;
36971;SDS011;40554;52.122;20.678;2022-12-29T02:08:15;8.85;;;4.70;;
36971;SDS011;40554;52.122;20.678;2022-12-29T02:10:32;9.53;;;4.08;;
36971;SDS011;40554;52.122;20.678;2022-12-29T02:12:51;9.00;;;4.30;;
36971;SDS011;40554;52.122;20.678;2022-12-29T02:15:08;9.33;;;4.45;;
36971;SDS011;40554;52.122;20.678;2022-12-29T02:17:35;8.13;;;4.17;;
36971;SDS011;40554;52.122;20.678;2022-12-29T02:36:33;9.28;;;4.33;;
36971;SDS011;40554;52.122;20.678;2022-12-29T02:44:34;8.88;;;4.65;;
36971;SDS011;40554;52.122;20.678;2022-12-29T02:47:05;8.85;;;4.20;;
36971;SDS011;40554;52.122;20.678;2022-12-29T02:52:19;10.78;;;4.95;;
36971;SDS011;40554;52.122;20.678;2022-12-29T02:54:43;8.03;;;4.40;;
36971;SDS011;40554;52.122;20.678;2022-12-29T02:56:59;8.75;;;4.37;;
36971;SDS011;40554;52.122;20.678;2022-12-29T02:59:15;10.78;;;4.17;;
36971;SDS011;40554;52.122;20.678;2022-12-29T03:01:37;10.08;;;4.70;;
36971;SDS011;40554;52.122;20.678;2022-12-29T03:04:44;10.55;;;4.25;;
36971;SDS011;40554;52.122;20.678;2022-12-29T03:07:40;9.93;;;4.37;;
36971;SDS011;40554;52.122;20.678;2022-12-29T03:18:21;8.25;;;4.35;;
36971;SDS011;40554;52.122;20.678;2022-12-29T03:20:44;8.37;;;4.20;;
36971;SDS011;40554;52.122;20.678;2022-12-29T03:23:28;8.60;;;4.45;;
36971;SDS011;40554;52.122;20.678;2022-12-29T03:25:48;9.55;;;4.97;;
36971;SDS011;40554;52.122;20.678;2022-12-29T03:28:09;7.67;;;3.95;;
36971;SDS011;40554;52.122;20.678;2022-12-29T03:30:32;10.30;;;5.45;;
36971;SDS011;40554;52.122;20.678;2022-12-29T03:32:52;8.45;;;4.12;;
36971;SDS011;40554;52.122;20.678;2022-12-29T03:35:19;7.97;;;4.17;;
36971;SDS011;40554;52.122;20.678;2022-12-29T03:37:39;9.35;;;4.55;;
36971;SDS011;40554;52.122;20.678;2022-12-29T03:40:00;8.65;;;4.83;;
36971;SDS011;40554;52.122;20.678;2022-12-29T03:42:19;9.73;;;4.40;;
36971;SDS011;40554;52.122;20.678;2022-12-29T03:44:38;7.75;;;4.62;;
36971;SDS011;40554;52.122;20.678;2022-12-29T03:46:58;9.30;;;4.92;;
36971;SDS011;40554;52.122;20.678;2022-12-29T03:49:14;8.73;;;4.80;;
36971;SDS011;40554;52.122;20.678;2022-12-29T03:51:30;9.95;;;4.90;;
36971;SDS011;40554;52.122;20.678;2022-12-29T03:53:47;8.83;;;4.70;;
36971;SDS011;40554;52.122;20.678;2022-12-29T03:56:03;6.58;;;4.03;;
36971;SDS011;40554;52.122;20.678;2022-12-29T03:58:20;9.68;;;4.95;;
36971;SDS011;40554;52.122;20.678;2022-12-29T04:00:36;8.35;;;4.03;;
36971;SDS011;40554;52.122;20.678;2022-12-29T04:02:52;6.80;;;4.00;;
36971;SDS011;40554;52.122;20.678;2022-12-29T04:05:08;8.25;;;3.92;;
36971;SDS011;40554;52.122;20.678;2022-12-29T04:07:25;7.55;;;4.30;;
36971;SDS011;40554;52.122;20.678;2022-12-29T04:09:41;8.85;;;4.53;;
36971;SDS011;40554;52.122;20.678;2022-12-29T04:11:57;11.55;;;4.65;;
36971;SDS011;40554;52.122;20.678;2022-12-29T04:14:16;8.90;;;4.67;;
36971;SDS011;40554;52.122;20.678;2022-12-29T04:16:32;8.08;;;4.37;;
36971;SDS011;40554;52.122;20.678;2022-12-29T04:18:50;7.03;;;3.70;;
36971;SDS011;40554;52.122;20.678;2022-12-29T04:21:06;11.43;;;5.47;;
36971;SDS011;40554;52.122;20.678;2022-12-29T04:23:22;8.65;;;4.12;;
36971;SDS011;40554;52.122;20.678;2022-12-29T04:25:39;9.63;;;4.62;;
36971;SDS011;40554;52.122;20.678;2022-12-29T04:27:55;8.20;;;4.45;;
36971;SDS011;40554;52.122;20.678;2022-12-29T04:30:13;11.43;;;5.15;;
36971;SDS011;40554;52.122;20.678;2022-12-29T04:32:31;10.72;;;5.22;;
36971;SDS011;40554;52.122;20.678;2022-12-29T04:34:47;11.10;;;4.83;;
36971;SDS011;40554;52.122;20.678;2022-12-29T04:37:03;11.55;;;4.45;;
36971;SDS011;40554;52.122;20.678;2022-12-29T04:39:20;8.33;;;4.50;;
36971;SDS011;40554;52.122;20.678;2022-12-29T04:41:36;9.95;;;4.40;;
36971;SDS011;40554;52.122;20.678;2022-12-29T04:43:53;10.45;;;5.25;;
36971;SDS011;40554;52.122;20.678;2022-12-29T04:46:09;10.32;;;4.50;;
36971;SDS011;40554;52.122;20.678;2022-12-29T04:48:25;12.25;;;5.67;;
36971;SDS011;40554;52.122;20.678;2022-12-29T04:50:42;9.08;;;4.80;;
36971;SDS011;40554;52.122;20.678;2022-12-29T04:52:59;15.03;;;5.53;;
36971;SDS011;40554;52.122;20.678;2022-12-29T04:55:16;11.05;;;5.58;;
36971;SDS011;40554;52.122;20.678;2022-12-29T04:57:32;11.03;;;4.95;;
36971;SDS011;40554;52.122;20.678;2022-12-29T04:59:49;11.22;;;5.45;;
36971;SDS011;40554;52.122;20.678;2022-12-29T05:02:05;11.57;;;5.67;;
36971;SDS011;40554;52.122;20.678;2022-12-29T05:04:21;13.18;;;6.33;;
36971;SDS011;40554;52.122;20.678;2022-12-29T05:06:37;10.25;;;5.90;;
36971;SDS011;40554;52.122;20.678;2022-12-29T05:08:53;11.25;;;5.78;;
36971;SDS011;40554;52.122;20.678;2022-12-29T05:11:10;13.40;;;5.97;;
36971;SDS011;40554;52.122;20.678;2022-12-29T05:13:26;11.50;;;6.22;;
36971;SDS011;40554;52.122;20.678;2022-12-29T05:15:47;12.90;;;6.00;;
36971;SDS011;40554;52.122;20.678;2022-12-29T05:18:06;11.38;;;5.87;;
36971;SDS011;40554;52.122;20.678;2022-12-29T05:20:22;13.32;;;6.35;;
36971;SDS011;40554;52.122;20.678;2022-12-29T05:22:38;13.83;;;6.67;;
36971;SDS011;40554;52.122;20.678;2022-12-29T05:24:55;11.65;;;6.20;;
36971;SDS011;40554;52.122;20.678;2022-12-29T05:27:11;14.20;;;6.60;;
36971;SDS011;40554;52.122;20.678;2022-12-29T05:29:27;12.82;;;6.00;;
36971;SDS011;40554;52.122;20.678;2022-12-29T05:31:43;12.05;;;6.05;;
36971;SDS011;40554;52.122;20.678;2022-12-29T05:34:00;11.45;;;5.87;;
36971;SDS011;40554;52.122;20.678;2022-12-29T05:36:16;11.83;;;6.00;;
36971;SDS011;40554;52.122;20.678;2022-12-29T05:38:33;14.23;;;6.30;;
36971;SDS011;40554;52.122;20.678;2022-12-29T05:40:49;12.95;;;6.15;;
36971;SDS011;40554;52.122;20.678;2022-12-29T05:43:06;12.07;;;6.67;;
36971;SDS011;40554;52.122;20.678;2022-12-29T05:45:22;12.25;;;6.75;;
36971;SDS011;40554;52.122;20.678;2022-12-29T05:47:38;11.88;;;6.65;;
36971;SDS011;40554;52.122;20.678;2022-12-29T05:49:55;13.50;;;6.87;;
36971;SDS011;40554;52.122;20.678;2022-12-29T05:52:11;13.05;;;6.35;;
36971;SDS011;40554;52.122;20.678;2022-12-29T05:54:27;12.75;;;6.10;;
36971;SDS011;40554;52.122;20.678;2022-12-29T05:56:43;13.90;;;6.40;;
36971;SDS011;40554;52.122;20.678;2022-12-29T05:58:59;14.63;;;6.12;;
36971;SDS011;40554;52.122;20.678;2022-12-29T06:01:16;10.60;;;5.17;;
36971;SDS011;40554;52.122;20.678;2022-12-29T06:03:32;11.73;;;5.35;;
36971;SDS011;40554;52.122;20.678;2022-12-29T06:05:49;11.45;;;5.42;;
36971;SDS011;40554;52.122;20.678;2022-12-29T06:08:05;12.30;;;5.40;;
36971;SDS011;40554;52.122;20.678;2022-12-29T06:10:21;12.25;;;5.83;;
36971;SDS011;40554;52.122;20.678;2022-12-29T06:12:37;11.93;;;5.67;;
36971;SDS011;40554;52.122;20.678;2022-12-29T06:14:54;12.03;;;5.90;;
36971;SDS011;40554;52.122;20.678;2022-12-29T06:17:10;11.08;;;5.58;;
36971;SDS011;40554;52.122;20.678;2022-12-29T06:19:26;7.42;;;4.67;;
36971;SDS011;40554;52.122;20.678;2022-12-29T06:21:42;11.12;;;4.95;;
36971;SDS011;40554;52.122;20.678;2022-12-29T06:23:59;10.30;;;5.40;;
36971;SDS011;40554;52.122;20.678;2022-12-29T06:26:15;10.75;;;5.22;;
36971;SDS011;40554;52.122;20.678;2022-12-29T06:28:31;12.95;;;5.47;;
36971;SDS011;40554;52.122;20.678;2022-12-29T06:30:47;12.07;;;5.50;;
36971;SDS011;40554;52.122;20.678;2022-12-29T06:33:04;10.40;;;5.08;;
36971;SDS011;40554;52.122;20.678;2022-12-29T06:35:20;8.35;;;4.67;;
36971;SDS011;40554;52.122;20.678;2022-12-29T06:37:40;8.83;;;4.62;;
36971;SDS011;40554;52.122;20.678;2022-12-29T06:39:57;9.30;;;4.40;;
36971;SDS011;40554;52.122;20.678;2022-12-29T06:42:13;10.45;;;4.83;;
36971;SDS011;40554;52.122;20.678;2022-12-29T06:44:29;9.00;;;4.78;;
36971;SDS011;40554;52.122;20.678;2022-12-29T06:46:45;8.13;;;4.28;;
36971;SDS011;40554;52.122;20.678;2022-12-29T06:49:02;12.03;;;4.30;;
36971;SDS011;40554;52.122;20.678;2022-12-29T06:51:18;9.45;;;5.08;;
36971;SDS011;40554;52.122;20.678;2022-12-29T06:53:35;12.65;;;5.45;;
36971;SDS011;40554;52.122;20.678;2022-12-29T06:55:51;8.35;;;5.28;;
36971;SDS011;40554;52.122;20.678;2022-12-29T06:58:07;10.15;;;4.55;;
36971;SDS011;40554;52.122;20.678;2022-12-29T07:00:24;9.30;;;5.05;;
36971;SDS011;40554;52.122;20.678;2022-12-29T07:02:41;8.48;;;4.83;;
36971;SDS011;40554;52.122;20.678;2022-12-29T07:04:57;15.68;;;4.67;;
36971;SDS011;40554;52.122;20.678;2022-12-29T07:07:13;9.95;;;5.22;;
36971;SDS011;40554;52.122;20.678;2022-12-29T07:09:30;8.45;;;3.90;;
36971;SDS011;40554;52.122;20.678;2022-12-29T07:11:46;9.30;;;5.12;;
36971;SDS011;40554;52.122;20.678;2022-12-29T07:14:02;8.90;;;4.85;;
36971;SDS011;40554;52.122;20.678;2022-12-29T07:16:19;10.58;;;5.08;;
36971;SDS011;40554;52.122;20.678;2022-12-29T07:18:35;6.80;;;4.00;;
36971;SDS011;40554;52.122;20.678;2022-12-29T07:20:51;9.25;;;4.05;;
36971;SDS011;40554;52.122;20.678;2022-12-29T07:23:07;8.65;;;4.47;;
36971;SDS011;40554;52.122;20.678;2022-12-29T07:25:24;8.85;;;5.35;;
36971;SDS011;40554;52.122;20.678;2022-12-29T07:27:40;9.18;;;4.67;;
36971;SDS011;40554;52.122;20.678;2022-12-29T07:29:56;9.30;;;4.55;;
36971;SDS011;40554;52.122;20.678;2022-12-29T07:32:12;7.67;;;4.45;;
36971;SDS011;40554;52.122;20.678;2022-12-29T07:34:29;8.58;;;4.42;;
36971;SDS011;40554;52.122;20.678;2022-12-29T07:36:45;11.75;;;5.05;;
36971;SDS011;40554;52.122;20.678;2022-12-29T07:39:02;7.28;;;4.75;;
36971;SDS011;40554;52.122;20.678;2022-12-29T07:41:19;9.28;;;4.72;;
36971;SDS011;40554;52.122;20.678;2022-12-29T07:43:35;10.15;;;4.33;;
36971;SDS011;40554;52.122;20.678;2022-12-29T07:45:51;9.98;;;4.37;;
36971;SDS011;40554;52.122;20.678;2022-12-29T07:48:08;9.33;;;4.72;;
36971;SDS011;40554;52.122;20.678;2022-12-29T07:50:24;8.18;;;4.05;;
36971;SDS011;40554;52.122;20.678;2022-12-29T07:52:40;8.75;;;4.47;;
36971;SDS011;40554;52.122;20.678;2022-12-29T07:54:57;10.00;;;4.95;;
36971;SDS011;40554;52.122;20.678;2022-12-29T07:57:13;8.20;;;4.33;;
36971;SDS011;40554;52.122;20.678;2022-12-29T07:59:29;9.90;;;5.05;;
36971;SDS011;40554;52.122;20.678;2022-12-29T08:01:46;11.60;;;4.53;;
36971;SDS011;40554;52.122;20.678;2022-12-29T08:04:03;9.18;;;5.08;;
36971;SDS011;40554;52.122;20.678;2022-12-29T08:06:20;9.03;;;5.50;;
36971;SDS011;40554;52.122;20.678;2022-12-29T08:08:37;11.75;;;5.30;;
36971;SDS011;40554;52.122;20.678;2022-12-29T08:10:53;8.15;;;5.17;;
36971;SDS011;40554;52.122;20.678;2022-12-29T08:13:10;10.68;;;5.08;;
36971;SDS011;40554;52.122;20.678;2022-12-29T08:15:27;9.70;;;4.42;;
36971;SDS011;40554;52.122;20.678;2022-12-29T08:17:44;9.30;;;5.42;;
36971;SDS011;40554;52.122;20.678;2022-12-29T08:20:00;15.38;;;6.42;;
36971;SDS011;40554;52.122;20.678;2022-12-29T08:22:16;9.78;;;5.12;;
36971;SDS011;40554;52.122;20.678;2022-12-29T08:24:33;11.57;;;6.08;;
36971;SDS011;40554;52.122;20.678;2022-12-29T08:26:49;9.28;;;4.87;;
36971;SDS011;40554;52.122;20.678;2022-12-29T08:29:06;7.92;;;4.25;;
36971;SDS011;40554;52.122;20.678;2022-12-29T08:31:22;11.30;;;4.87;;
36971;SDS011;40554;52.122;20.678;2022-12-29T08:33:39;12.47;;;6.08;;
36971;SDS011;40554;52.122;20.678;2022-12-29T08:35:59;9.95;;;5.12;;
36971;SDS011;40554;52.122;20.678;2022-12-29T08:38:21;8.48;;;4.60;;
36971;SDS011;40554;52.122;20.678;2022-12-29T08:40:37;8.70;;;4.45;;
36971;SDS011;40554;52.122;20.678;2022-12-29T08:42:53;9.43;;;5.15;;
36971;SDS011;40554;52.122;20.678;2022-12-29T08:45:10;10.43;;;4.28;;
36971;SDS011;40554;52.122;20.678;2022-12-29T08:47:26;8.08;;;4.67;;
36971;SDS011;40554;52.122;20.678;2022-12-29T08:49:43;9.28;;;5.10;;
36971;SDS011;40554;52.122;20.678;2022-12-29T08:51:59;9.15;;;4.97;;
36971;SDS011;40554;52.122;20.678;2022-12-29T08:54:15;9.40;;;4.65;;
36971;SDS011;40554;52.122;20.678;2022-12-29T08:56:31;11.57;;;5.53;;
36971;SDS011;40554;52.122;20.678;2022-12-29T08:58:48;8.03;;;4.42;;
36971;SDS011;40554;52.122;20.678;2022-12-29T09:01:04;7.83;;;4.78;;
36971;SDS011;40554;52.122;20.678;2022-12-29T09:03:21;10.68;;;4.83;;
36971;SDS011;40554;52.122;20.678;2022-12-29T09:05:38;8.10;;;4.67;;
36971;SDS011;40554;52.122;20.678;2022-12-29T09:07:55;7.78;;;4.10;;
36971;SDS011;40554;52.122;20.678;2022-12-29T09:10:11;9.00;;;4.97;;
36971;SDS011;40554;52.122;20.678;2022-12-29T09:12:28;9.68;;;4.90;;
36971;SDS011;40554;52.122;20.678;2022-12-29T09:14:46;9.68;;;4.67;;
36971;SDS011;40554;52.122;20.678;2022-12-29T09:17:02;8.95;;;5.30;;
36971;SDS011;40554;52.122;20.678;2022-12-29T09:19:37;13.00;;;5.03;;
36971;SDS011;40554;52.122;20.678;2022-12-29T09:21:53;11.43;;;5.75;;
36971;SDS011;40554;52.122;20.678;2022-12-29T09:24:09;8.80;;;4.50;;
36971;SDS011;40554;52.122;20.678;2022-12-29T09:26:25;10.08;;;4.87;;
36971;SDS011;40554;52.122;20.678;2022-12-29T09:28:42;11.50;;;5.12;;
36971;SDS011;40554;52.122;20.678;2022-12-29T09:30:59;8.85;;;5.22;;
36971;SDS011;40554;52.122;20.678;2022-12-29T09:33:16;10.35;;;4.78;;
36971;SDS011;40554;52.122;20.678;2022-12-29T09:35:34;7.60;;;4.87;;
36971;SDS011;40554;52.122;20.678;2022-12-29T09:37:50;10.65;;;5.12;;
36971;SDS011;40554;52.122;20.678;2022-12-29T09:40:06;7.83;;;4.65;;
36971;SDS011;40554;52.122;20.678;2022-12-29T09:44:56;7.45;;;4.53;;
36971;SDS011;40554;52.122;20.678;2022-12-29T09:47:25;10.63;;;5.15;;
36971;SDS011;40554;52.122;20.678;2022-12-29T09:49:53;10.43;;;5.12;;
36971;SDS011;40554;52.122;20.678;2022-12-29T09:52:24;7.10;;;4.70;;
36971;SDS011;40554;52.122;20.678;2022-12-29T09:57:24;8.80;;;5.12;;
36971;SDS011;40554;52.122;20.678;2022-12-29T09:59:44;8.63;;;5.57;;
36971;SDS011;40554;52.122;20.678;2022-12-29T10:02:10;8.45;;;5.03;;
36971;SDS011;40554;52.122;20.678;2022-12-29T10:04:42;8.98;;;5.20;;
36971;SDS011;40554;52.122;20.678;2022-12-29T10:12:01;8.30;;;5.05;;
36971;SDS011;40554;52.122;20.678;2022-12-29T10:25:24;9.55;;;5.67;;
36971;SDS011;40554;52.122;20.678;2022-12-29T10:27:42;10.50;;;5.37;;
36971;SDS011;40554;52.122;20.678;2022-12-29T10:30:05;13.43;;;7.72;;
36971;SDS011;40554;52.122;20.678;2022-12-29T10:32:36;13.18;;;6.70;;
36971;SDS011;40554;52.122;20.678;2022-12-29T10:35:09;9.33;;;5.70;;
36971;SDS011;40554;52.122;20.678;2022-12-29T10:40:14;12.68;;;5.72;;
36971;SDS011;40554;52.122;20.678;2022-12-29T10:42:43;8.75;;;4.95;;
36971;SDS011;40554;52.122;20.678;2022-12-29T10:45:03;11.80;;;5.17;;
36971;SDS011;40554;52.122;20.678;2022-12-29T10:47:23;12.82;;;6.00;;
36971;SDS011;40554;52.122;20.678;2022-12-29T10:49:43;10.72;;;5.55;;
36971;SDS011;40554;52.122;20.678;2022-12-29T10:52:02;10.05;;;6.08;;
36971;SDS011;40554;52.122;20.678;2022-12-29T10:56:59;13.98;;;5.40;;
36971;SDS011;40554;52.122;20.678;2022-12-29T10:59:25;11.43;;;5.92;;
36971;SDS011;40554;52.122;20.678;2022-12-29T11:07:19;9.65;;;5.53;;
36971;SDS011;40554;52.122;20.678;2022-12-29T11:09:38;10.25;;;5.62;;
36971;SDS011;40554;52.122;20.678;2022-12-29T11:11:55;14.20;;;7.40;;
36971;SDS011;40554;52.122;20.678;2022-12-29T11:16:35;13.40;;;6.33;;
36971;SDS011;40554;52.122;20.678;2022-12-29T11:18:51;11.65;;;5.70;;
36971;SDS011;40554;52.122;20.678;2022-12-29T11:21:53;9.65;;;5.28;;
36971;SDS011;40554;52.122;20.678;2022-12-29T11:23:54;12.88;;;6.45;;
36971;SDS011;40554;52.122;20.678;2022-12-29T11:28:38;9.40;;;5.65;;
36971;SDS011;40554;52.122;20.678;2022-12-29T11:30:59;9.25;;;5.10;;
36971;SDS011;40554;52.122;20.678;2022-12-29T11:33:17;11.55;;;5.22;;
36971;SDS011;40554;52.122;20.678;2022-12-29T11:35:38;10.23;;;5.80;;
36971;SDS011;40554;52.122;20.678;2022-12-29T11:37:57;12.20;;;6.33;;
36971;SDS011;40554;52.122;20.678;2022-12-29T11:40:16;9.35;;;4.90;;
36971;SDS011;40554;52.122;20.678;2022-12-29T11:42:37;11.30;;;5.37;;
36971;SDS011;40554;52.122;20.678;2022-12-29T11:44:56;10.08;;;4.85;;
36971;SDS011;40554;52.122;20.678;2022-12-29T11:47:25;12.33;;;5.22;;
36971;SDS011;40554;52.122;20.678;2022-12-29T11:49:42;10.33;;;5.40;;
36971;SDS011;40554;52.122;20.678;2022-12-29T11:52:06;10.80;;;5.87;;
36971;SDS011;40554;52.122;20.678;2022-12-29T11:56:47;12.03;;;6.05;;
36971;SDS011;40554;52.122;20.678;2022-12-29T12:01:54;9.25;;;4.90;;
36971;SDS011;40554;52.122;20.678;2022-12-29T12:04:13;10.70;;;5.30;;
36971;SDS011;40554;52.122;20.678;2022-12-29T12:06:36;9.40;;;5.50;;
36971;SDS011;40554;52.122;20.678;2022-12-29T12:08:59;10.80;;;5.17;;
36971;SDS011;40554;52.122;20.678;2022-12-29T12:11:39;13.38;;;5.80;;
36971;SDS011;40554;52.122;20.678;2022-12-29T12:16:41;11.85;;;5.25;;
36971;SDS011;40554;52.122;20.678;2022-12-29T12:19:26;10.60;;;5.12;;
36971;SDS011;40554;52.122;20.678;2022-12-29T12:21:56;11.48;;;5.92;;
36971;SDS011;40554;52.122;20.678;2022-12-29T12:32:12;9.95;;;5.60;;
36971;SDS011;40554;52.122;20.678;2022-12-29T12:34:47;11.90;;;6.15;;
36971;SDS011;40554;52.122;20.678;2022-12-29T12:48:39;14.40;;;5.58;;
36971;SDS011;40554;52.122;20.678;2022-12-29T12:56:30;11.55;;;5.55;;
36971;SDS011;40554;52.122;20.678;2022-12-29T13:02:00;9.98;;;5.30;;
36971;SDS011;40554;52.122;20.678;2022-12-29T13:04:26;13.25;;;5.92;;
36971;SDS011;40554;52.122;20.678;2022-12-29T13:07:15;11.48;;;6.40;;
36971;SDS011;40554;52.122;20.678;2022-12-29T13:09:48;12.33;;;6.28;;
36971;SDS011;40554;52.122;20.678;2022-12-29T13:23:00;9.88;;;5.75;;
36971;SDS011;40554;52.122;20.678;2022-12-29T13:25:58;11.33;;;6.03;;
36971;SDS011;40554;52.122;20.678;2022-12-29T13:28:46;13.25;;;6.60;;
36971;SDS011;40554;52.122;20.678;2022-12-29T13:31:22;12.20;;;6.55;;
36971;SDS011;40554;52.122;20.678;2022-12-29T13:33:48;14.25;;;6.78;;
36971;SDS011;40554;52.122;20.678;2022-12-29T13:38:46;14.93;;;6.60;;
36971;SDS011;40554;52.122;20.678;2022-12-29T13:41:42;14.05;;;6.42;;
36971;SDS011;40554;52.122;20.678;2022-12-29T13:43:59;14.80;;;6.60;;
36971;SDS011;40554;52.122;20.678;2022-12-29T13:46:21;11.63;;;6.45;;
36971;SDS011;40554;52.122;20.678;2022-12-29T13:48:51;11.22;;;5.85;;
36971;SDS011;40554;52.122;20.678;2022-12-29T13:51:14;13.72;;;7.33;;
36971;SDS011;40554;52.122;20.678;2022-12-29T13:53:37;15.25;;;8.53;;
36971;SDS011;40554;52.122;20.678;2022-12-29T13:56:11;14.95;;;8.68;;
36971;SDS011;40554;52.122;20.678;2022-12-29T13:58:45;13.08;;;7.28;;
36971;SDS011;40554;52.122;20.678;2022-12-29T14:01:31;14.35;;;8.20;;
36971;SDS011;40554;52.122;20.678;2022-12-29T14:04:14;12.68;;;6.70;;
36971;SDS011;40554;52.122;20.678;2022-12-29T14:06:42;14.13;;;7.00;;
36971;SDS011;40554;52.122;20.678;2022-12-29T14:09:04;11.35;;;6.95;;
36971;SDS011;40554;52.122;20.678;2022-12-29T14:11:34;12.88;;;6.35;;
36971;SDS011;40554;52.122;20.678;2022-12-29T14:13:53;12.68;;;7.33;;
36971;SDS011;40554;52.122;20.678;2022-12-29T14:18:48;12.05;;;6.50;;
36971;SDS011;40554;52.122;20.678;2022-12-29T14:21:18;12.40;;;6.42;;
36971;SDS011;40554;52.122;20.678;2022-12-29T14:23:39;11.43;;;6.78;;
36971;SDS011;40554;52.122;20.678;2022-12-29T14:28:28;10.48;;;6.25;;
36971;SDS011;40554;52.122;20.678;2022-12-29T14:30:52;11.25;;;6.83;;
36971;SDS011;40554;52.122;20.678;2022-12-29T14:33:12;12.65;;;6.15;;
36971;SDS011;40554;52.122;20.678;2022-12-29T14:35:40;16.67;;;7.00;;
36971;SDS011;40554;52.122;20.678;2022-12-29T14:38:06;14.23;;;6.30;;
36971;SDS011;40554;52.122;20.678;2022-12-29T14:42:50;13.53;;;6.33;;
36971;SDS011;40554;52.122;20.678;2022-12-29T14:47:35;13.13;;;7.25;;
36971;SDS011;40554;52.122;20.678;2022-12-29T14:49:57;11.12;;;6.47;;
36971;SDS011;40554;52.122;20.678;2022-12-29T14:52:24;10.38;;;6.37;;
36971;SDS011;40554;52.122;20.678;2022-12-29T14:54:44;14.03;;;7.67;;
36971;SDS011;40554;52.122;20.678;2022-12-29T14:57:08;10.82;;;6.50;;
36971;SDS011;40554;52.122;20.678;2022-12-29T14:59:28;12.93;;;7.22;;
36971;SDS011;40554;52.122;20.678;2022-12-29T15:01:49;11.95;;;6.22;;
36971;SDS011;40554;52.122;20.678;2022-12-29T15:04:18;10.95;;;6.30;;
36971;SDS011;40554;52.122;20.678;2022-12-29T15:06:35;11.68;;;6.62;;
36971;SDS011;40554;52.122;20.678;2022-12-29T15:11:23;13.50;;;7.33;;
36971;SDS011;40554;52.122;20.678;2022-12-29T15:13:55;9.68;;;5.60;;
36971;SDS011;40554;52.122;20.678;2022-12-29T15:18:47;16.02;;;8.58;;
36971;SDS011;40554;52.122;20.678;2022-12-29T15:21:04;10.65;;;6.15;;
36971;SDS011;40554;52.122;20.678;2022-12-29T15:23:22;14.15;;;6.97;;
36971;SDS011;40554;52.122;20.678;2022-12-29T15:28:15;18.67;;;9.65;;
36971;SDS011;40554;52.122;20.678;2022-12-29T15:30:31;17.87;;;7.75;;
36971;SDS011;40554;52.122;20.678;2022-12-29T15:32:49;11.73;;;6.78;;
36971;SDS011;40554;52.122;20.678;2022-12-29T15:35:40;10.05;;;6.50;;
36971;SDS011;40554;52.122;20.678;2022-12-29T15:37:53;13.85;;;7.30;;
36971;SDS011;40554;52.122;20.678;2022-12-29T15:40:21;12.00;;;7.47;;
36971;SDS011;40554;52.122;20.678;2022-12-29T15:42:50;15.93;;;7.67;;
36971;SDS011;40554;52.122;20.678;2022-12-29T15:45:36;16.37;;;7.85;;
36971;SDS011;40554;52.122;20.678;2022-12-29T15:47:53;13.00;;;7.67;;
36971;SDS011;40554;52.122;20.678;2022-12-29T15:50:22;15.85;;;7.83;;
36971;SDS011;40554;52.122;20.678;2022-12-29T15:52:42;16.62;;;8.35;;
36971;SDS011;40554;52.122;20.678;2022-12-29T15:54:59;12.78;;;7.55;;
36971;SDS011;40554;52.122;20.678;2022-12-29T15:57:26;13.95;;;8.05;;
36971;SDS011;40554;52.122;20.678;2022-12-29T15:59:45;11.45;;;7.03;;
36971;SDS011;40554;52.122;20.678;2022-12-29T16:02:07;15.83;;;7.80;;
36971;SDS011;40554;52.122;20.678;2022-12-29T16:04:25;17.25;;;7.70;;
36971;SDS011;40554;52.122;20.678;2022-12-29T16:06:57;16.85;;;8.98;;